sensor_id;sensor_type;location;lat;lon;timestamp;pressure;altitude;pressure_sealevel;temperature
20736;BMP180;10528;52.124;5.196;2023-04-01T00:02:26;98935.00;;;17.10
20736;BMP180;10528;52.124;5.196;2023-04-01T00:04:53;98929.00;;;17.10
20736;BMP180;10528;52.124;5.196;2023-04-01T00:07:20;98941.00;;;17.10
20736;BMP180;10528;52.124;5.196;2023-04-01T00:09:47;98934.00;;;17.10
20736;BMP180;10528;52.124;5.196;2023-04-01T00:12:14;98939.00;;;17.10
20736;BMP180;10528;52.124;5.196;2023-04-01T00:14:41;98939.00;;;17.10
20736;BMP180;10528;52.124;5.196;2023-04-01T00:17:08;98945.00;;;17.10
20736;BMP180;10528;52.124;5.196;2023-04-01T00:19:34;98947.00;;;17.10
20736;BMP180;10528;52.124;5.196;2023-04-01T00:22:02;98943.00;;;17.10
20736;BMP180;10528;52.124;5.196;2023-04-01T00:24:29;98937.00;;;17.10
20736;BMP180;10528;52.124;5.196;2023-04-01T00:26:56;98940.00;;;17.00
20736;BMP180;10528;52.124;5.196;2023-04-01T00:29:22;98943.00;;;17.10
20736;BMP180;10528;52.124;5.196;2023-04-01T00:31:51;98944.00;;;17.00
20736;BMP180;10528;52.124;5.196;2023-04-01T00:34:17;98949.00;;;17.00
20736;BMP180;10528;52.124;5.196;2023-04-01T00:36:44;98950.00;;;17.00
20736;BMP180;10528;52.124;5.196;2023-04-01T00:39:11;98947.00;;;17.00
20736;BMP180;10528;52.124;5.196;2023-04-01T00:41:38;98958.00;;;17.00
20736;BMP180;10528;52.124;5.196;2023-04-01T00:44:30;98955.00;;;17.00
20736;BMP180;10528;52.124;5.196;2023-04-01T00:46:57;98950.00;;;17.00
20736;BMP180;10528;52.124;5.196;2023-04-01T00:49:30;98957.00;;;16.90
20736;BMP180;10528;52.124;5.196;2023-04-01T00:52:02;98954.00;;;16.90
20736;BMP180;10528;52.124;5.196;2023-04-01T00:54:30;98956.00;;;16.90
20736;BMP180;10528;52.124;5.196;2023-04-01T00:57:04;98964.00;;;16.90
20736;BMP180;10528;52.124;5.196;2023-04-01T00:59:41;98966.00;;;16.90
20736;BMP180;10528;52.124;5.196;2023-04-01T01:02:12;98965.00;;;16.90
20736;BMP180;10528;52.124;5.196;2023-04-01T01:04:40;98953.00;;;16.90
20736;BMP180;10528;52.124;5.196;2023-04-01T01:10:19;98969.00;;;16.80
20736;BMP180;10528;52.124;5.196;2023-04-01T01:13:10;98959.00;;;16.80
20736;BMP180;10528;52.124;5.196;2023-04-01T01:15:48;98963.00;;;16.80
20736;BMP180;10528;52.124;5.196;2023-04-01T01:18:43;98956.00;;;16.80
20736;BMP180;10528;52.124;5.196;2023-04-01T01:27:13;98958.00;;;16.80
20736;BMP180;10528;52.124;5.196;2023-04-01T01:30:12;98963.00;;;16.80
20736;BMP180;10528;52.124;5.196;2023-04-01T01:35:49;98973.00;;;16.70
20736;BMP180;10528;52.124;5.196;2023-04-01T01:38:24;98967.00;;;16.70
20736;BMP180;10528;52.124;5.196;2023-04-01T01:41:04;98971.00;;;16.70
20736;BMP180;10528;52.124;5.196;2023-04-01T01:43:43;98976.00;;;16.70
20736;BMP180;10528;52.124;5.196;2023-04-01T01:46:18;98973.00;;;16.70
20736;BMP180;10528;52.124;5.196;2023-04-01T01:48:47;98973.00;;;16.70
20736;BMP180;10528;52.124;5.196;2023-04-01T01:51:15;98974.00;;;16.70
20736;BMP180;10528;52.124;5.196;2023-04-01T01:53:42;98980.00;;;16.70
20736;BMP180;10528;52.124;5.196;2023-04-01T01:56:11;98978.00;;;16.70
20736;BMP180;10528;52.124;5.196;2023-04-01T01:58:47;98976.00;;;16.70
20736;BMP180;10528;52.124;5.196;2023-04-01T02:01:26;98973.00;;;16.70
20736;BMP180;10528;52.124;5.196;2023-04-01T02:03:59;98983.00;;;16.70
20736;BMP180;10528;52.124;5.196;2023-04-01T02:06:32;98987.00;;;16.60
20736;BMP180;10528;52.124;5.196;2023-04-01T02:09:05;98987.00;;;16.60
20736;BMP180;10528;52.124;5.196;2023-04-01T02:11:49;98989.00;;;16.60
20736;BMP180;10528;52.124;5.196;2023-04-01T02:14:22;98976.00;;;16.60
20736;BMP180;10528;52.124;5.196;2023-04-01T02:17:02;98987.00;;;16.60
20736;BMP180;10528;52.124;5.196;2023-04-01T02:22:21;98998.00;;;16.60
20736;BMP180;10528;52.124;5.196;2023-04-01T02:24:55;99003.00;;;16.60
20736;BMP180;10528;52.124;5.196;2023-04-01T02:27:24;98997.00;;;16.60
20736;BMP180;10528;52.124;5.196;2023-04-01T02:29:52;98991.00;;;16.60
20736;BMP180;10528;52.124;5.196;2023-04-01T02:32:20;98987.00;;;16.50
20736;BMP180;10528;52.124;5.196;2023-04-01T02:34:48;98988.00;;;16.60
20736;BMP180;10528;52.124;5.196;2023-04-01T02:37:15;99000.00;;;16.60
20736;BMP180;10528;52.124;5.196;2023-04-01T02:39:43;98995.00;;;16.50
20736;BMP180;10528;52.124;5.196;2023-04-01T02:42:10;98998.00;;;16.50
20736;BMP180;10528;52.124;5.196;2023-04-01T02:44:37;99000.00;;;16.50
20736;BMP180;10528;52.124;5.196;2023-04-01T02:47:04;99008.00;;;16.50
20736;BMP180;10528;52.124;5.196;2023-04-01T02:49:31;99010.00;;;16.50
20736;BMP180;10528;52.124;5.196;2023-04-01T02:51:58;99005.00;;;16.50
20736;BMP180;10528;52.124;5.196;2023-04-01T02:54:24;99000.00;;;16.50
20736;BMP180;10528;52.124;5.196;2023-04-01T02:56:51;99011.00;;;16.50
20736;BMP180;10528;52.124;5.196;2023-04-01T02:59:18;99008.00;;;16.50
20736;BMP180;10528;52.124;5.196;2023-04-01T03:01:45;99018.00;;;16.50
20736;BMP180;10528;52.124;5.196;2023-04-01T03:04:12;99027.00;;;16.50
20736;BMP180;10528;52.124;5.196;2023-04-01T03:06:39;99023.00;;;16.50
20736;BMP180;10528;52.124;5.196;2023-04-01T03:09:06;99026.00;;;16.50
20736;BMP180;10528;52.124;5.196;2023-04-01T03:11:33;99023.00;;;16.50
20736;BMP180;10528;52.124;5.196;2023-04-01T03:14:00;99031.00;;;16.50
20736;BMP180;10528;52.124;5.196;2023-04-01T03:16:27;99035.00;;;16.40
20736;BMP180;10528;52.124;5.196;2023-04-01T03:18:54;99043.00;;;16.40
20736;BMP180;10528;52.124;5.196;2023-04-01T03:21:24;99054.00;;;16.40
20736;BMP180;10528;52.124;5.196;2023-04-01T03:23:51;99050.00;;;16.40
20736;BMP180;10528;52.124;5.196;2023-04-01T03:26:19;99056.00;;;16.40
20736;BMP180;10528;52.124;5.196;2023-04-01T03:28:47;99053.00;;;16.40
20736;BMP180;10528;52.124;5.196;2023-04-01T03:31:14;99061.00;;;16.40
20736;BMP180;10528;52.124;5.196;2023-04-01T03:33:48;99065.00;;;16.40
20736;BMP180;10528;52.124;5.196;2023-04-01T03:36:16;99066.00;;;16.40
20736;BMP180;10528;52.124;5.196;2023-04-01T03:38:44;99072.00;;;16.40
20736;BMP180;10528;52.124;5.196;2023-04-01T03:41:17;99078.00;;;16.40
20736;BMP180;10528;52.124;5.196;2023-04-01T03:43:44;99075.00;;;16.40
20736;BMP180;10528;52.124;5.196;2023-04-01T03:46:12;99079.00;;;16.40
20736;BMP180;10528;52.124;5.196;2023-04-01T03:48:43;99070.00;;;16.40
20736;BMP180;10528;52.124;5.196;2023-04-01T03:51:10;99083.00;;;16.40
20736;BMP180;10528;52.124;5.196;2023-04-01T03:53:37;99095.00;;;16.50
20736;BMP180;10528;52.124;5.196;2023-04-01T03:56:06;99093.00;;;16.50
20736;BMP180;10528;52.124;5.196;2023-04-01T03:58:36;99090.00;;;16.50
20736;BMP180;10528;52.124;5.196;2023-04-01T04:01:20;99095.00;;;16.50
20736;BMP180;10528;52.124;5.196;2023-04-01T04:03:52;99107.00;;;16.50
20736;BMP180;10528;52.124;5.196;2023-04-01T04:06:20;99102.00;;;16.50
20736;BMP180;10528;52.124;5.196;2023-04-01T04:08:48;99100.00;;;16.50
20736;BMP180;10528;52.124;5.196;2023-04-01T04:11:16;99114.00;;;16.50
20736;BMP180;10528;52.124;5.196;2023-04-01T04:13:43;99118.00;;;16.50
20736;BMP180;10528;52.124;5.196;2023-04-01T04:16:11;99128.00;;;16.50
20736;BMP180;10528;52.124;5.196;2023-04-01T04:18:42;99129.00;;;16.50
20736;BMP180;10528;52.124;5.196;2023-04-01T04:21:14;99126.00;;;16.50
20736;BMP180;10528;52.124;5.196;2023-04-01T04:23:43;99124.00;;;16.50
20736;BMP180;10528;52.124;5.196;2023-04-01T04:26:14;99136.00;;;16.50
20736;BMP180;10528;52.124;5.196;2023-04-01T04:28:44;99137.00;;;16.60
20736;BMP180;10528;52.124;5.196;2023-04-01T04:31:12;99150.00;;;16.60
20736;BMP180;10528;52.124;5.196;2023-04-01T04:33:44;99155.00;;;16.60
20736;BMP180;10528;52.124;5.196;2023-04-01T04:36:11;99152.00;;;16.60
20736;BMP180;10528;52.124;5.196;2023-04-01T04:38:38;99152.00;;;16.60
20736;BMP180;10528;52.124;5.196;2023-04-01T04:41:13;99163.00;;;16.60
20736;BMP180;10528;52.124;5.196;2023-04-01T04:43:54;99171.00;;;16.60
20736;BMP180;10528;52.124;5.196;2023-04-01T04:46:22;99167.00;;;16.60
20736;BMP180;10528;52.124;5.196;2023-04-01T04:48:55;99178.00;;;16.60
20736;BMP180;10528;52.124;5.196;2023-04-01T04:51:23;99178.00;;;16.60
20736;BMP180;10528;52.124;5.196;2023-04-01T04:53:51;99183.00;;;16.60
20736;BMP180;10528;52.124;5.196;2023-04-01T04:56:22;99188.00;;;16.60
20736;BMP180;10528;52.124;5.196;2023-04-01T04:59:05;99196.00;;;16.60
20736;BMP180;10528;52.124;5.196;2023-04-01T05:01:48;99201.00;;;16.60
20736;BMP180;10528;52.124;5.196;2023-04-01T05:04:15;99205.00;;;16.60
20736;BMP180;10528;52.124;5.196;2023-04-01T05:06:43;99204.00;;;16.60
20736;BMP180;10528;52.124;5.196;2023-04-01T05:09:12;99211.00;;;16.70
20736;BMP180;10528;52.124;5.196;2023-04-01T05:11:39;99217.00;;;16.70
20736;BMP180;10528;52.124;5.196;2023-04-01T05:14:12;99223.00;;;16.70
20736;BMP180;10528;52.124;5.196;2023-04-01T05:16:40;99218.00;;;16.70
20736;BMP180;10528;52.124;5.196;2023-04-01T05:19:07;99216.00;;;16.70
20736;BMP180;10528;52.124;5.196;2023-04-01T05:21:33;99235.00;;;16.70
20736;BMP180;10528;52.124;5.196;2023-04-01T05:24:00;99226.00;;;16.70
20736;BMP180;10528;52.124;5.196;2023-04-01T05:26:29;99238.00;;;16.70
20736;BMP180;10528;52.124;5.196;2023-04-01T05:28:56;99248.00;;;16.70
20736;BMP180;10528;52.124;5.196;2023-04-01T05:31:22;99237.00;;;16.70
20736;BMP180;10528;52.124;5.196;2023-04-01T05:33:51;99248.00;;;16.70
20736;BMP180;10528;52.124;5.196;2023-04-01T05:36:18;99262.00;;;16.70
20736;BMP180;10528;52.124;5.196;2023-04-01T05:38:45;99263.00;;;16.70
20736;BMP180;10528;52.124;5.196;2023-04-01T05:41:14;99265.00;;;16.70
20736;BMP180;10528;52.124;5.196;2023-04-01T05:43:44;99263.00;;;16.70
20736;BMP180;10528;52.124;5.196;2023-04-01T05:46:31;99275.00;;;16.70
20736;BMP180;10528;52.124;5.196;2023-04-01T05:49:07;99278.00;;;16.70
20736;BMP180;10528;52.124;5.196;2023-04-01T05:51:35;99270.00;;;16.70
20736;BMP180;10528;52.124;5.196;2023-04-01T05:54:04;99287.00;;;16.70
20736;BMP180;10528;52.124;5.196;2023-04-01T05:56:31;99269.00;;;16.70
20736;BMP180;10528;52.124;5.196;2023-04-01T05:58:59;99282.00;;;16.80
20736;BMP180;10528;52.124;5.196;2023-04-01T06:01:26;99285.00;;;16.80
20736;BMP180;10528;52.124;5.196;2023-04-01T06:03:53;99288.00;;;16.80
20736;BMP180;10528;52.124;5.196;2023-04-01T06:06:26;99293.00;;;16.80
20736;BMP180;10528;52.124;5.196;2023-04-01T06:09:17;99292.00;;;16.80
20736;BMP180;10528;52.124;5.196;2023-04-01T06:18:02;99300.00;;;16.70
20736;BMP180;10528;52.124;5.196;2023-04-01T06:23:58;99313.00;;;16.70
20736;BMP180;10528;52.124;5.196;2023-04-01T06:35:35;99345.00;;;16.70
20736;BMP180;10528;52.124;5.196;2023-04-01T06:44:29;99366.00;;;16.70
20736;BMP180;10528;52.124;5.196;2023-04-01T06:47:57;99375.00;;;16.70
20736;BMP180;10528;52.124;5.196;2023-04-01T06:54:03;99375.00;;;16.70
20736;BMP180;10528;52.124;5.196;2023-04-01T06:57:02;99371.00;;;16.70
20736;BMP180;10528;52.124;5.196;2023-04-01T06:59:35;99382.00;;;16.70
20736;BMP180;10528;52.124;5.196;2023-04-01T07:04:45;99389.00;;;16.80
20736;BMP180;10528;52.124;5.196;2023-04-01T07:07:38;99385.00;;;16.80
20736;BMP180;10528;52.124;5.196;2023-04-01T07:10:23;99405.00;;;16.80
20736;BMP180;10528;52.124;5.196;2023-04-01T07:13:35;99408.00;;;16.80
20736;BMP180;10528;52.124;5.196;2023-04-01T07:16:19;99404.00;;;16.70
20736;BMP180;10528;52.124;5.196;2023-04-01T07:19:01;99424.00;;;16.70
20736;BMP180;10528;52.124;5.196;2023-04-01T07:21:54;99416.00;;;16.70
20736;BMP180;10528;52.124;5.196;2023-04-01T07:24:39;99414.00;;;16.80
20736;BMP180;10528;52.124;5.196;2023-04-01T07:27:13;99425.00;;;16.80
20736;BMP180;10528;52.124;5.196;2023-04-01T07:29:43;99435.00;;;16.80
20736;BMP180;10528;52.124;5.196;2023-04-01T07:32:39;99438.00;;;16.80
20736;BMP180;10528;52.124;5.196;2023-04-01T07:41:15;99453.00;;;16.80
20736;BMP180;10528;52.124;5.196;2023-04-01T07:44:34;99457.00;;;16.80
20736;BMP180;10528;52.124;5.196;2023-04-01T07:55:43;99465.00;;;16.90
20736;BMP180;10528;52.124;5.196;2023-04-01T08:02:05;99483.00;;;16.90
20736;BMP180;10528;52.124;5.196;2023-04-01T08:10:44;99495.00;;;17.00
20736;BMP180;10528;52.124;5.196;2023-04-01T08:16:57;99502.00;;;17.10
20736;BMP180;10528;52.124;5.196;2023-04-01T08:19:46;99509.00;;;17.10
20736;BMP180;10528;52.124;5.196;2023-04-01T08:22:42;99516.00;;;17.10
20736;BMP180;10528;52.124;5.196;2023-04-01T08:25:27;99518.00;;;17.20
20736;BMP180;10528;52.124;5.196;2023-04-01T08:28:15;99519.00;;;17.20
20736;BMP180;10528;52.124;5.196;2023-04-01T08:31:09;99516.00;;;17.20
20736;BMP180;10528;52.124;5.196;2023-04-01T08:33:39;99522.00;;;17.30
20736;BMP180;10528;52.124;5.196;2023-04-01T08:36:26;99532.00;;;17.30
20736;BMP180;10528;52.124;5.196;2023-04-01T08:39:35;99541.00;;;17.30
20736;BMP180;10528;52.124;5.196;2023-04-01T08:45:36;99546.00;;;17.30
20736;BMP180;10528;52.124;5.196;2023-04-01T08:48:40;99546.00;;;17.30
20736;BMP180;10528;52.124;5.196;2023-04-01T08:54:46;99560.00;;;17.30
20736;BMP180;10528;52.124;5.196;2023-04-01T08:57:59;99562.00;;;17.30
20736;BMP180;10528;52.124;5.196;2023-04-01T09:00:53;99561.00;;;17.30
20736;BMP180;10528;52.124;5.196;2023-04-01T09:13:14;99577.00;;;17.30
20736;BMP180;10528;52.124;5.196;2023-04-01T09:16:41;99592.00;;;17.30
20736;BMP180;10528;52.124;5.196;2023-04-01T09:19:24;99587.00;;;17.30
20736;BMP180;10528;52.124;5.196;2023-04-01T09:34:30;99594.00;;;17.40
20736;BMP180;10528;52.124;5.196;2023-04-01T09:37:29;99609.00;;;17.40
20736;BMP180;10528;52.124;5.196;2023-04-01T09:40:41;99612.00;;;17.40
20736;BMP180;10528;52.124;5.196;2023-04-01T10:02:07;99629.00;;;17.60
20736;BMP180;10528;52.124;5.196;2023-04-01T10:20:08;99659.00;;;17.80
20736;BMP180;10528;52.124;5.196;2023-04-01T10:29:40;99664.00;;;17.90
20736;BMP180;10528;52.124;5.196;2023-04-01T10:45:44;99674.00;;;18.10
20736;BMP180;10528;52.124;5.196;2023-04-01T10:58:37;99683.00;;;18.30
20736;BMP180;10528;52.124;5.196;2023-04-01T11:08:45;99688.00;;;18.60
20736;BMP180;10528;52.124;5.196;2023-04-01T11:23:50;99710.00;;;18.90
20736;BMP180;10528;52.124;5.196;2023-04-01T11:26:56;99709.00;;;18.90
20736;BMP180;10528;52.124;5.196;2023-04-01T11:42:01;99734.00;;;19.10
20736;BMP180;10528;52.124;5.196;2023-04-01T11:49:05;99740.00;;;19.20
20736;BMP180;10528;52.124;5.196;2023-04-01T11:51:41;99748.00;;;19.20
20736;BMP180;10528;52.124;5.196;2023-04-01T11:55:10;99740.00;;;19.20
20736;BMP180;10528;52.124;5.196;2023-04-01T12:01:00;99760.00;;;19.20
20736;BMP180;10528;52.124;5.196;2023-04-01T12:06:05;99769.00;;;19.30
20736;BMP180;10528;52.124;5.196;2023-04-01T12:14:59;99783.00;;;19.30
20736;BMP180;10528;52.124;5.196;2023-04-01T12:17:51;99777.00;;;19.20
20736;BMP180;10528;52.124;5.196;2023-04-01T12:20:45;99784.00;;;19.20
20736;BMP180;10528;52.124;5.196;2023-04-01T12:23:24;99783.00;;;19.20
20736;BMP180;10528;52.124;5.196;2023-04-01T12:29:35;99791.00;;;19.10
20736;BMP180;10528;52.124;5.196;2023-04-01T12:32:31;99806.00;;;19.10
20736;BMP180;10528;52.124;5.196;2023-04-01T12:43:57;99821.00;;;18.90
20736;BMP180;10528;52.124;5.196;2023-04-01T12:47:10;99826.00;;;18.80
20736;BMP180;10528;52.124;5.196;2023-04-01T12:53:14;99831.00;;;18.70
20736;BMP180;10528;52.124;5.196;2023-04-01T12:55:45;99831.00;;;18.70
20736;BMP180;10528;52.124;5.196;2023-04-01T13:01:52;99841.00;;;18.70
20736;BMP180;10528;52.124;5.196;2023-04-01T13:04:56;99843.00;;;18.70
20736;BMP180;10528;52.124;5.196;2023-04-01T13:07:39;99845.00;;;18.70
20736;BMP180;10528;52.124;5.196;2023-04-01T13:10:38;99845.00;;;18.80
20736;BMP180;10528;52.124;5.196;2023-04-01T13:13:44;99855.00;;;18.80
20736;BMP180;10528;52.124;5.196;2023-04-01T13:16:22;99856.00;;;18.90
20736;BMP180;10528;52.124;5.196;2023-04-01T13:22:07;99865.00;;;18.90
20736;BMP180;10528;52.124;5.196;2023-04-01T13:24:41;99856.00;;;18.90
20736;BMP180;10528;52.124;5.196;2023-04-01T13:27:36;99868.00;;;18.90
20736;BMP180;10528;52.124;5.196;2023-04-01T13:40:00;99889.00;;;18.70
20736;BMP180;10528;52.124;5.196;2023-04-01T13:48:57;99899.00;;;18.50
20736;BMP180;10528;52.124;5.196;2023-04-01T14:03:27;99899.00;;;18.30
20736;BMP180;10528;52.124;5.196;2023-04-01T14:09:10;99917.00;;;18.20
20736;BMP180;10528;52.124;5.196;2023-04-01T14:24:22;99932.00;;;18.10
20736;BMP180;10528;52.124;5.196;2023-04-01T14:27:21;99945.00;;;18.10
20736;BMP180;10528;52.124;5.196;2023-04-01T14:33:27;99951.00;;;18.10
20736;BMP180;10528;52.124;5.196;2023-04-01T14:36:39;99955.00;;;18.10
20736;BMP180;10528;52.124;5.196;2023-04-01T14:48:27;99983.00;;;18.00
20736;BMP180;10528;52.124;5.196;2023-04-01T14:51:32;99990.00;;;18.00
20736;BMP180;10528;52.124;5.196;2023-04-01T15:02:33;100004.00;;;18.00
20736;BMP180;10528;52.124;5.196;2023-04-01T15:05:47;99999.00;;;17.90
20736;BMP180;10528;52.124;5.196;2023-04-01T15:11:48;100026.00;;;17.90
20736;BMP180;10528;52.124;5.196;2023-04-01T15:17:58;100028.00;;;17.80
20736;BMP180;10528;52.124;5.196;2023-04-01T15:21:02;100037.00;;;17.80
20736;BMP180;10528;52.124;5.196;2023-04-01T15:24:07;100046.00;;;17.70
20736;BMP180;10528;52.124;5.196;2023-04-01T15:30:49;100050.00;;;17.60
20736;BMP180;10528;52.124;5.196;2023-04-01T15:36:08;100064.00;;;17.60
20736;BMP180;10528;52.124;5.196;2023-04-01T15:44:50;100095.00;;;17.50
20736;BMP180;10528;52.124;5.196;2023-04-01T15:50:18;100103.00;;;17.50
20736;BMP180;10528;52.124;5.196;2023-04-01T15:53:03;100106.00;;;17.40
20736;BMP180;10528;52.124;5.196;2023-04-01T16:10:52;100139.00;;;17.20
20736;BMP180;10528;52.124;5.196;2023-04-01T16:22:07;100161.00;;;17.10
20736;BMP180;10528;52.124;5.196;2023-04-01T16:24:53;100155.00;;;17.10
20736;BMP180;10528;52.124;5.196;2023-04-01T16:27:40;100173.00;;;17.10
20736;BMP180;10528;52.124;5.196;2023-04-01T16:30:37;100147.00;;;17.00
20736;BMP180;10528;52.124;5.196;2023-04-01T16:33:34;100172.00;;;16.90
20736;BMP180;10528;52.124;5.196;2023-04-01T16:36:29;100191.00;;;16.80
20736;BMP180;10528;52.124;5.196;2023-04-01T16:45:15;100206.00;;;16.80
20736;BMP180;10528;52.124;5.196;2023-04-01T16:47:56;100209.00;;;16.80
20736;BMP180;10528;52.124;5.196;2023-04-01T16:50:30;100203.00;;;16.80
20736;BMP180;10528;52.124;5.196;2023-04-01T16:55:54;100230.00;;;16.70
20736;BMP180;10528;52.124;5.196;2023-04-01T16:58:34;100236.00;;;16.70
20736;BMP180;10528;52.124;5.196;2023-04-01T17:01:26;100245.00;;;16.70
20736;BMP180;10528;52.124;5.196;2023-04-01T17:04:07;100238.00;;;16.70
20736;BMP180;10528;52.124;5.196;2023-04-01T17:13:03;100265.00;;;16.60
20736;BMP180;10528;52.124;5.196;2023-04-01T17:15:45;100271.00;;;16.50
20736;BMP180;10528;52.124;5.196;2023-04-01T17:27:24;100298.00;;;16.30
20736;BMP180;10528;52.124;5.196;2023-04-01T17:36:19;100319.00;;;16.30
20736;BMP180;10528;52.124;5.196;2023-04-01T17:56:32;100368.00;;;15.90
20736;BMP180;10528;52.124;5.196;2023-04-01T18:07:54;100391.00;;;15.80
20736;BMP180;10528;52.124;5.196;2023-04-01T18:19:02;100430.00;;;15.80
20736;BMP180;10528;52.124;5.196;2023-04-01T18:22:17;100432.00;;;15.80
20736;BMP180;10528;52.124;5.196;2023-04-01T18:30:54;100464.00;;;15.60
20736;BMP180;10528;52.124;5.196;2023-04-01T18:36:55;100468.00;;;15.50
20736;BMP180;10528;52.124;5.196;2023-04-01T18:39:42;100470.00;;;15.50
20736;BMP180;10528;52.124;5.196;2023-04-01T18:42:30;100480.00;;;15.60
20736;BMP180;10528;52.124;5.196;2023-04-01T18:45:28;100489.00;;;15.50
20736;BMP180;10528;52.124;5.196;2023-04-01T18:48:37;100495.00;;;15.50
20736;BMP180;10528;52.124;5.196;2023-04-01T18:51:34;100501.00;;;15.50
20736;BMP180;10528;52.124;5.196;2023-04-01T18:54:12;100502.00;;;15.50
20736;BMP180;10528;52.124;5.196;2023-04-01T18:56:45;100514.00;;;15.60
20736;BMP180;10528;52.124;5.196;2023-04-01T18:59:25;100522.00;;;15.50
20736;BMP180;10528;52.124;5.196;2023-04-01T19:05:20;100526.00;;;15.50
20736;BMP180;10528;52.124;5.196;2023-04-01T19:07:53;100540.00;;;15.50
20736;BMP180;10528;52.124;5.196;2023-04-01T19:10:56;100549.00;;;15.40
20736;BMP180;10528;52.124;5.196;2023-04-01T19:19:38;100571.00;;;15.40
20736;BMP180;10528;52.124;5.196;2023-04-01T19:22:51;100576.00;;;15.40
20736;BMP180;10528;52.124;5.196;2023-04-01T19:28:58;100592.00;;;15.40
20736;BMP180;10528;52.124;5.196;2023-04-01T19:38:14;100603.00;;;15.40
20736;BMP180;10528;52.124;5.196;2023-04-01T19:53:33;100642.00;;;15.30
20736;BMP180;10528;52.124;5.196;2023-04-01T19:56:19;100646.00;;;15.30
20736;BMP180;10528;52.124;5.196;2023-04-01T19:59:02;100661.00;;;15.30
20736;BMP180;10528;52.124;5.196;2023-04-01T20:01:49;100658.00;;;15.20
20736;BMP180;10528;52.124;5.196;2023-04-01T20:04:29;100662.00;;;15.20
20736;BMP180;10528;52.124;5.196;2023-04-01T20:13:48;100684.00;;;15.10
20736;BMP180;10528;52.124;5.196;2023-04-01T20:16:18;100683.00;;;15.10
20736;BMP180;10528;52.124;5.196;2023-04-01T20:18:59;100693.00;;;15.00
20736;BMP180;10528;52.124;5.196;2023-04-01T20:21:46;100696.00;;;14.90
20736;BMP180;10528;52.124;5.196;2023-04-01T20:27:22;100714.00;;;14.80
20736;BMP180;10528;52.124;5.196;2023-04-01T20:36:34;100733.00;;;14.70
20736;BMP180;10528;52.124;5.196;2023-04-01T20:39:40;100736.00;;;14.80
20736;BMP180;10528;52.124;5.196;2023-04-01T20:45:26;100753.00;;;14.60
20736;BMP180;10528;52.124;5.196;2023-04-01T20:50:59;100771.00;;;14.60
20736;BMP180;10528;52.124;5.196;2023-04-01T20:56:30;100775.00;;;14.60
20736;BMP180;10528;52.124;5.196;2023-04-01T20:59:47;100783.00;;;14.50
20736;BMP180;10528;52.124;5.196;2023-04-01T21:02:41;100795.00;;;14.40
20736;BMP180;10528;52.124;5.196;2023-04-01T21:05:54;100792.00;;;14.40
20736;BMP180;10528;52.124;5.196;2023-04-01T21:08:52;100804.00;;;14.40
20736;BMP180;10528;52.124;5.196;2023-04-01T21:14:42;100816.00;;;14.30
20736;BMP180;10528;52.124;5.196;2023-04-01T21:29:59;100851.00;;;14.20
20736;BMP180;10528;52.124;5.196;2023-04-01T21:36:58;100867.00;;;14.10
20736;BMP180;10528;52.124;5.196;2023-04-01T21:41:08;100875.00;;;14.10
20736;BMP180;10528;52.124;5.196;2023-04-01T21:50:00;100885.00;;;14.00
20736;BMP180;10528;52.124;5.196;2023-04-01T21:55:51;100881.00;;;14.00
20736;BMP180;10528;52.124;5.196;2023-04-01T21:58:40;100899.00;;;14.00
20736;BMP180;10528;52.124;5.196;2023-04-01T22:04:45;100915.00;;;13.90
20736;BMP180;10528;52.124;5.196;2023-04-01T22:07:19;100909.00;;;13.90
20736;BMP180;10528;52.124;5.196;2023-04-01T22:10:21;100927.00;;;13.90
20736;BMP180;10528;52.124;5.196;2023-04-01T22:13:04;100928.00;;;13.90
20736;BMP180;10528;52.124;5.196;2023-04-01T22:18:30;100936.00;;;13.90
20736;BMP180;10528;52.124;5.196;2023-04-01T22:21:11;100944.00;;;13.80
20736;BMP180;10528;52.124;5.196;2023-04-01T22:29:53;100953.00;;;13.80
20736;BMP180;10528;52.124;5.196;2023-04-01T22:32:44;100968.00;;;13.80
20736;BMP180;10528;52.124;5.196;2023-04-01T22:42:13;100967.00;;;13.60
20736;BMP180;10528;52.124;5.196;2023-04-01T22:48:05;100997.00;;;13.60
20736;BMP180;10528;52.124;5.196;2023-04-01T22:56:46;101006.00;;;13.50
20736;BMP180;10528;52.124;5.196;2023-04-01T23:02:23;101015.00;;;13.50
20736;BMP180;10528;52.124;5.196;2023-04-01T23:04:57;101018.00;;;13.50
20736;BMP180;10528;52.124;5.196;2023-04-01T23:11:06;101033.00;;;13.60
20736;BMP180;10528;52.124;5.196;2023-04-01T23:13:17;101027.00;;;13.50
20736;BMP180;10528;52.124;5.196;2023-04-01T23:15:46;101027.00;;;13.50
20736;BMP180;10528;52.124;5.196;2023-04-01T23:21:26;101045.00;;;13.40
20736;BMP180;10528;52.124;5.196;2023-04-01T23:24:42;101058.00;;;13.40
20736;BMP180;10528;52.124;5.196;2023-04-01T23:29:49;101048.00;;;13.30
20736;BMP180;10528;52.124;5.196;2023-04-01T23:32:22;101060.00;;;13.30
20736;BMP180;10528;52.124;5.196;2023-04-01T23:34:57;101066.00;;;13.30
20736;BMP180;10528;52.124;5.196;2023-04-01T23:37:25;101061.00;;;13.30
20736;BMP180;10528;52.124;5.196;2023-04-01T23:39:58;101076.00;;;13.30
20736;BMP180;10528;52.124;5.196;2023-04-01T23:42:39;101082.00;;;13.40
20736;BMP180;10528;52.124;5.196;2023-04-01T23:45:18;101081.00;;;13.40
20736;BMP180;10528;52.124;5.196;2023-04-01T23:47:48;101089.00;;;13.40
20736;BMP180;10528;52.124;5.196;2023-04-01T23:50:23;101083.00;;;13.40
20736;BMP180;10528;52.124;5.196;2023-04-01T23:53:08;101102.00;;;13.40
20736;BMP180;10528;52.124;5.196;2023-04-01T23:55:41;101095.00;;;13.40
20736;BMP180;10528;52.124;5.196;2023-04-01T23:58:47;101103.00;;;13.30
